Terminal Aerodrome Forecast
Issued by NWS Cleveland, OH

Home | Current Version | Previous Version | Graphics & Text | Print | Product List | Glossary Off
Versions: 1 2 3 4 5 6 7 8 9 10 11 12 13

000
FTUS41 KCLE 052339
TAFTOL
TAF
KTOL 052339Z 0600/0624 VRB03KT P6SM SCT150 BKN200
      TEMPO 0611/0613 5SM BR
     FM061400 24008KT P6SM SCT150 BKN200=

USA.gov is the U.S. government's official web portal to all federal, state and local government web resources and services.